Time;durP1;ratioP1;P1;durP2;ratioP2;P2;SDS_P1;SDS_P2;PMS_P1;PMS_P2;Temp;Humidity;BMP_temperature;BMP_pressure;BME280_temperature;BME280_humidity;BME280_pressure;Samples;Min_cycle;Max_cycle;Signal;HPM_P1;HPM_P2
2022/05/17 00:02:17;;;;;;;;;6.25;6.25;;;;;21.74;52.38;101556.66;5078044;28;45451;-51
2022/05/17 00:04:42;;;;;;;;;8.75;7.00;;;;;21.71;52.24;101562.50;5078175;28;45352;-51
2022/05/17 00:07:08;;;;;;;;;5.50;5.50;;;;;21.71;52.47;101557.06;5078101;28;45308;-49
2022/05/17 00:09:33;;;;;;;;;6.00;4.75;;;;;21.64;52.69;101549.72;5078082;28;45425;-52
2022/05/17 00:11:59;;;;;;;;;7.50;6.00;;;;;21.67;52.26;101545.81;5078306;28;45283;-49
2022/05/17 00:14:26;;;;;;;;;7.75;6.75;;;;;21.60;52.47;101543.03;5078155;28;45482;-50
2022/05/17 00:16:51;;;;;;;;;7.50;5.75;;;;;21.63;52.53;101553.47;5077840;28;45440;-50
2022/05/17 00:19:20;;;;;;;;;6.00;5.50;;;;;21.61;53.17;101547.41;5078038;28;45152;-49
2022/05/17 00:21:47;;;;;;;;;9.25;5.75;;;;;21.60;53.13;101545.75;5078176;28;45421;-47
2022/05/17 00:24:15;;;;;;;;;9.00;7.75;;;;;21.58;53.54;101542.41;5078015;28;45322;-50
2022/05/17 00:26:41;;;;;;;;;7.00;6.50;;;;;21.56;53.64;101543.66;5077927;28;45276;-49
2022/05/17 00:29:06;;;;;;;;;9.75;7.25;;;;;21.55;53.63;101544.69;5077677;28;45392;-50
2022/05/17 00:31:33;;;;;;;;;6.75;6.00;;;;;21.55;53.13;101536.56;5078065;28;45415;-52
2022/05/17 00:33:59;;;;;;;;;8.75;6.00;;;;;21.54;54.07;101537.63;5077986;28;45443;-49
2022/05/17 00:36:24;;;;;;;;;2.75;2.75;;;;;21.51;54.09;101538.84;5076859;28;46202;-50
2022/05/17 00:38:50;;;;;;;;;8.00;6.50;;;;;21.48;53.98;101547.34;5077751;28;45491;-51
2022/05/17 00:41:15;;;;;;;;;7.50;7.00;;;;;21.45;54.38;101538.78;5077769;28;45448;-51
2022/05/17 00:46:37;;;;;;;;;7.25;7.00;;;;;21.28;54.06;101520.16;5077439;28;45784;-50
2022/05/17 00:49:04;;;;;;;;;8.75;8.50;;;;;21.33;55.11;101541.22;5077620;28;45290;-49
2022/05/17 00:51:30;;;;;;;;;7.25;6.00;;;;;21.32;54.41;101537.69;5076951;28;45330;-51
2022/05/17 00:54:12;;;;;;;;;6.00;6.00;;;;;21.32;54.52;101531.41;5077987;28;45549;-49
2022/05/17 00:56:43;;;;;;;;;8.00;7.00;;;;;21.34;54.76;101534.78;5077440;28;45299;-47
2022/05/17 00:59:09;;;;;;;;;6.75;6.75;;;;;21.29;54.71;101526.38;5076865;28;45317;-52
2022/05/17 01:01:36;;;;;;;;;9.00;7.75;;;;;21.29;55.31;101532.63;5077372;28;45305;-53
2022/05/17 01:04:12;;;;;;;;;9.00;6.75;;;;;21.22;54.68;101531.75;5077376;28;45327;-49
2022/05/17 01:06:42;;;;;;;;;8.00;6.50;;;;;21.16;54.90;101525.25;5076093;28;46105;-49
2022/05/17 01:09:08;;;;;;;;;7.00;7.00;;;;;21.15;55.09;101529.00;5077065;28;45266;-48
2022/05/17 01:11:33;;;;;;;;;7.25;7.25;;;;;21.11;55.43;101530.44;5077548;28;45556;-51
2022/05/17 01:16:43;;;;;;;;;6.75;6.75;;;;;20.98;55.50;101515.94;5076980;28;45767;-49
2022/05/17 01:19:09;;;;;;;;;7.00;6.25;;;;;21.00;55.65;101522.84;5077193;28;45361;-52
2022/05/17 01:21:36;;;;;;;;;6.00;6.00;;;;;20.97;56.23;101522.41;5077079;28;45365;-51
2022/05/17 01:24:01;;;;;;;;;9.00;6.25;;;;;20.92;56.37;101520.28;5077212;28;45352;-51
2022/05/17 01:26:30;;;;;;;;;6.00;5.50;;;;;20.89;56.27;101531.50;5076901;28;46253;-52
2022/05/17 01:28:55;;;;;;;;;7.00;6.00;;;;;20.86;56.37;101521.91;5076925;28;45424;-50
2022/05/17 01:31:21;;;;;;;;;1.75;1.00;;;;;20.73;56.26;101512.84;5077150;28;45468;-50
2022/05/17 01:33:46;;;;;;;;;10.00;6.00;;;;;20.80;56.02;101521.84;5077289;28;45389;-56
2022/05/17 01:36:15;;;;;;;;;8.75;7.50;;;;;20.77;56.63;101519.53;5076649;28;46924;-51
2022/05/17 01:38:45;;;;;;;;;5.50;5.50;;;;;20.70;57.00;101521.34;5076778;28;45369;-49
2022/05/17 01:41:11;;;;;;;;;9.75;6.50;;;;;20.68;56.69;101530.47;5077016;28;45373;-49
2022/05/17 01:43:36;;;;;;;;;10.00;6.50;;;;;20.65;56.89;101520.06;5076927;28;45382;-52
2022/05/17 01:46:06;;;;;;;;;7.00;6.00;;;;;20.62;56.91;101528.56;5076565;28;45347;-50
2022/05/17 01:48:32;;;;;;;;;7.00;6.25;;;;;20.55;57.34;101516.84;5076790;28;45372;-50
2022/05/17 01:50:57;;;;;;;;;8.50;6.00;;;;;20.58;57.30;101523.75;5076991;28;45180;-51
2022/05/17 01:53:23;;;;;;;;;10.25;7.50;;;;;20.56;56.97;101523.94;5076894;28;45452;-49
2022/05/17 01:55:48;;;;;;;;;9.25;6.75;;;;;20.53;56.87;101516.22;5076468;28;45964;-48
2022/05/17 01:58:14;;;;;;;;;8.50;7.50;;;;;20.52;56.78;101519.94;5076620;28;45326;-51
2022/05/17 02:00:39;;;;;;;;;7.00;7.00;;;;;20.51;56.73;101520.97;5076524;28;45443;-51
2022/05/17 02:03:04;;;;;;;;;6.75;6.00;;;;;20.49;56.96;101528.44;5076907;28;45327;-49
2022/05/17 02:05:30;;;;;;;;;7.25;6.00;;;;;20.45;56.77;101516.31;5075991;28;45256;-51
2022/05/17 02:07:55;;;;;;;;;7.50;6.00;;;;;20.45;56.98;101519.00;5076288;28;45315;-48
2022/05/17 02:10:25;;;;;;;;;7.25;6.00;;;;;20.43;57.10;101521.06;5076019;28;45419;-50
2022/05/17 02:12:53;;;;;;;;;7.00;6.75;;;;;20.49;56.26;101539.25;5076692;28;45453;-49
2022/05/17 02:15:18;;;;;;;;;7.00;7.00;;;;;20.52;56.07;101546.13;5076215;28;45416;-51
2022/05/17 02:17:43;;;;;;;;;11.50;7.75;;;;;20.57;56.05;101538.28;5079006;28;45325;-48
2022/05/17 02:20:10;;;;;;;;;7.25;5.50;;;;;20.52;56.01;101528.06;5079914;28;45330;-48
2022/05/17 02:22:35;;;;;;;;;5.25;4.50;;;;;20.57;55.56;101547.22;5080252;28;45545;-48
2022/05/17 02:25:00;;;;;;;;;7.50;5.50;;;;;20.56;55.65;101542.88;5079470;28;46025;-47
2022/05/17 02:27:26;;;;;;;;;4.00;4.00;;;;;20.55;55.51;101548.44;5079889;28;45339;-50
2022/05/17 02:29:51;;;;;;;;;6.75;5.25;;;;;20.54;55.49;101544.06;5079709;28;45758;-48
2022/05/17 02:32:16;;;;;;;;;6.75;6.00;;;;;20.55;55.28;101543.88;5079718;28;45423;-48
2022/05/17 02:34:43;;;;;;;;;7.25;5.25;;;;;20.56;55.21;101561.78;5079559;28;46150;-48
2022/05/17 02:37:09;;;;;;;;;4.75;4.75;;;;;20.56;54.86;101560.91;5078763;28;45427;-49
2022/05/17 02:39:34;;;;;;;;;6.00;6.00;;;;;20.57;55.10;101539.13;5079535;28;45376;-51
2022/05/17 02:42:00;;;;;;;;;7.50;5.00;;;;;20.61;55.21;101544.97;5080029;28;45304;-50
2022/05/17 02:44:25;;;;;;;;;6.00;6.00;;;;;20.60;55.01;101552.22;5079327;28;45477;-52
2022/05/17 02:46:50;;;;;;;;;6.25;6.00;;;;;20.64;55.01;101560.78;5078473;28;45322;-52
2022/05/17 02:49:16;;;;;;;;;8.00;6.25;;;;;20.65;54.79;101552.50;5079309;28;45631;-50
2022/05/17 02:51:42;;;;;;;;;6.00;6.00;;;;;20.68;54.72;101559.38;5079491;28;45357;-50
2022/05/17 02:54:10;;;;;;;;;7.00;6.25;;;;;20.72;54.76;101555.25;5079423;28;45420;-48
2022/05/17 02:56:36;;;;;;;;;9.00;6.00;;;;;20.74;54.53;101547.81;5061471;28;45466;-47
2022/05/17 02:59:02;;;;;;;;;5.00;3.75;;;;;20.74;53.92;101550.50;5079309;28;45364;-51
2022/05/17 03:01:27;;;;;;;;;7.50;5.00;;;;;20.80;54.37;101548.88;5079193;28;45159;-48
2022/05/17 03:03:53;;;;;;;;;4.00;4.00;;;;;20.79;54.56;101549.94;5078913;28;46268;-47
2022/05/17 03:06:18;;;;;;;;;6.25;6.25;;;;;20.71;54.03;101542.78;5079130;28;45228;-51
2022/05/17 03:08:43;;;;;;;;;6.25;6.25;;;;;20.76;54.49;101547.59;5079230;28;45309;-50
2022/05/17 03:11:09;;;;;;;;;8.25;6.00;;;;;20.72;54.53;101551.72;5079414;28;45281;-51
2022/05/17 03:13:35;;;;;;;;;8.00;6.75;;;;;20.73;54.76;101538.03;5078871;28;47333;-50
2022/05/17 03:16:02;;;;;;;;;5.25;4.00;;;;;20.72;54.74;101540.91;5078770;28;45339;-50
2022/05/17 03:18:27;;;;;;;;;5.50;5.50;;;;;20.72;54.74;101535.50;5078905;28;45255;-49
2022/05/17 03:20:52;;;;;;;;;6.00;6.00;;;;;20.68;54.71;101525.06;5060939;28;45531;-50
2022/05/17 03:23:18;;;;;;;;;6.50;6.00;;;;;20.64;54.67;101534.59;5078911;28;46082;-51
2022/05/17 03:25:43;;;;;;;;;8.00;6.75;;;;;20.58;54.91;101535.38;5078820;28;45339;-52
2022/05/17 03:28:11;;;;;;;;;6.75;6.00;;;;;20.59;55.93;101547.88;5078410;28;45492;-50
2022/05/17 03:30:36;;;;;;;;;7.00;5.25;;;;;20.52;56.06;101544.28;5079098;28;45222;-50
2022/05/17 03:33:02;;;;;;;;;9.00;5.25;;;;;20.53;55.82;101548.66;5078679;28;45379;-49
2022/05/17 03:35:27;;;;;;;;;6.75;6.75;;;;;20.46;56.44;101534.19;5078818;28;45293;-49
2022/05/17 03:37:52;;;;;;;;;9.50;6.50;;;;;20.45;55.44;101543.34;5078963;28;45393;-48
2022/05/17 03:40:18;;;;;;;;;8.75;8.00;;;;;20.42;56.16;101541.00;5078963;28;45374;-50
2022/05/17 03:42:44;;;;;;;;;8.00;6.25;;;;;20.37;56.97;101541.59;5078494;28;45194;-50
2022/05/17 03:45:10;;;;;;;;;7.00;7.00;;;;;20.31;56.83;101544.19;5078381;28;45507;-50
2022/05/17 03:47:36;;;;;;;;;9.50;7.00;;;;;20.24;57.04;101541.44;5078370;28;45404;-50
2022/05/17 03:50:03;;;;;;;;;8.75;7.25;;;;;20.19;57.08;101546.59;5078788;28;45369;-49
2022/05/17 03:52:31;;;;;;;;;8.50;6.75;;;;;20.10;57.13;101543.16;5078234;28;46353;-51
2022/05/17 03:54:58;;;;;;;;;8.00;7.00;;;;;20.07;57.41;101546.25;5077832;28;45330;-49
2022/05/17 03:57:25;;;;;;;;;10.50;6.25;;;;;20.00;57.94;101548.00;5078577;28;45330;-51
2022/05/17 03:59:50;;;;;;;;;11.00;7.25;;;;;19.95;58.35;101547.75;5078391;28;45336;-50
2022/05/17 04:02:16;;;;;;;;;6.25;5.75;;;;;19.90;58.81;101548.31;5078141;28;45347;-51
2022/05/17 04:04:41;;;;;;;;;6.50;6.50;;;;;19.81;59.05;101535.13;5077866;28;45284;-49
2022/05/17 04:07:07;;;;;;;;;7.25;7.25;;;;;19.81;59.61;101546.75;5078278;28;45386;-50
2022/05/17 04:09:32;;;;;;;;;9.25;7.75;;;;;19.76;59.46;101542.91;5078459;28;45472;-50
2022/05/17 04:11:57;;;;;;;;;7.75;7.00;;;;;19.77;59.63;101550.00;5077836;28;46043;-49
2022/05/17 04:14:23;;;;;;;;;6.25;5.50;;;;;19.77;58.92;101548.16;5078013;28;45360;-49
2022/05/17 04:16:48;;;;;;;;;7.00;7.00;;;;;19.70;58.53;101549.91;5077985;28;45396;-51
2022/05/17 04:19:15;;;;;;;;;6.00;6.00;;;;;19.72;58.39;101547.88;5078084;28;45466;-49
2022/05/17 04:21:42;;;;;;;;;9.75;7.50;;;;;19.71;58.52;101548.06;5077481;28;46936;-51
2022/05/17 04:24:07;;;;;;;;;7.00;7.00;;;;;19.67;59.60;101548.41;5078046;28;45373;-52
2022/05/17 04:26:32;;;;;;;;;7.50;6.75;;;;;19.64;60.12;101550.69;5077964;28;45238;-50
2022/05/17 04:28:58;;;;;;;;;10.00;8.00;;;;;19.56;60.13;101551.56;5078118;28;45172;-52
2022/05/17 04:31:24;;;;;;;;;14.50;8.50;;;;;19.50;60.68;101552.31;5076371;28;46015;-49
2022/05/17 04:33:50;;;;;;;;;6.75;6.75;;;;;19.53;59.04;101556.50;5077620;28;45397;-47
2022/05/17 04:36:15;;;;;;;;;6.50;5.75;;;;;19.51;59.55;101551.31;5077980;28;45303;-50
2022/05/17 04:38:41;;;;;;;;;7.00;5.00;;;;;19.52;60.48;101558.38;5078101;28;45554;-48
2022/05/17 04:41:06;;;;;;;;;8.25;7.00;;;;;19.52;60.30;101558.38;5077763;28;45811;-48
2022/05/17 04:43:32;;;;;;;;;7.00;7.00;;;;;19.55;60.19;101558.00;5076524;28;45352;-50
2022/05/17 04:45:57;;;;;;;;;8.00;6.75;;;;;19.52;60.23;101552.97;5077804;28;45515;-50
2022/05/17 04:48:24;;;;;;;;;8.00;8.00;;;;;19.60;59.82;101550.19;5077940;28;45254;-47
2022/05/17 04:50:51;;;;;;;;;9.25;8.00;;;;;19.65;60.12;101563.97;5077599;28;45307;-50
2022/05/17 04:53:17;;;;;;;;;10.00;9.00;;;;;19.65;59.97;101560.44;5077578;28;45369;-47
2022/05/17 04:55:42;;;;;;;;;9.00;7.50;;;;;19.71;59.70;101569.66;5077720;28;45218;-48
2022/05/17 04:58:08;;;;;;;;;9.00;7.25;;;;;19.72;59.31;101580.28;5077750;28;45456;-46
2022/05/17 05:00:33;;;;;;;;;8.00;6.25;;;;;19.76;59.93;101567.22;5077664;28;46044;-47
2022/05/17 05:02:59;;;;;;;;;10.25;9.25;;;;;19.74;59.65;101571.97;5077038;28;45409;-46
2022/05/17 05:05:24;;;;;;;;;10.00;9.00;;;;;19.83;60.18;101578.94;5077464;28;45445;-47
2022/05/17 05:07:51;;;;;;;;;7.25;6.00;;;;;19.85;59.94;101576.91;5077638;28;45412;-47
2022/05/17 05:10:16;;;;;;;;;10.25;8.50;;;;;19.80;59.50;101553.16;5077011;28;47189;-48
2022/05/17 05:12:42;;;;;;;;;8.50;8.00;;;;;19.90;59.76;101580.72;5076767;28;45353;-46
2022/05/17 05:15:10;;;;;;;;;9.75;9.50;;;;;19.91;59.78;101579.69;5077360;28;45449;-46
2022/05/17 05:17:36;;;;;;;;;9.00;6.75;;;;;19.97;59.45;101574.56;5077046;28;45201;-45
2022/05/17 05:20:03;;;;;;;;;13.75;10.75;;;;;19.99;59.60;101586.84;5077019;28;46539;-45
2022/05/17 05:22:30;;;;;;;;;8.00;8.00;;;;;19.98;59.36;101581.66;5076493;28;45472;-48
2022/05/17 05:24:56;;;;;;;;;10.50;8.75;;;;;19.98;59.30;101581.66;5077199;28;45342;-50
2022/05/17 05:27:22;;;;;;;;;8.00;8.00;;;;;20.04;58.95;101594.38;5077469;28;45453;-47
2022/05/17 05:29:47;;;;;;;;;12.75;10.25;;;;;20.03;59.47;101595.44;5076452;28;45412;-46
2022/05/17 05:32:12;;;;;;;;;12.00;9.00;;;;;20.05;59.11;101596.91;5058037;28;45298;-48
2022/05/17 05:34:38;;;;;;;;;12.00;10.00;;;;;20.09;59.28;101584.69;5080432;27;45371;-54
2022/05/17 05:37:03;;;;;;;;;11.75;8.50;;;;;20.20;58.92;101596.88;5097528;27;45374;-48
2022/05/17 05:39:29;;;;;;;;;7.25;7.25;;;;;20.26;58.81;101595.28;5097518;27;46923;-48
2022/05/17 05:41:55;;;;;;;;;7.00;7.00;;;;;20.30;58.56;101597.41;5097338;27;45277;-48
2022/05/17 05:44:21;;;;;;;;;9.50;9.50;;;;;20.32;58.39;101605.34;5097647;27;45248;-50
2022/05/17 05:46:46;;;;;;;;;11.25;8.75;;;;;20.33;57.79;101607.00;5097168;27;45313;-50
2022/05/17 05:49:12;;;;;;;;;6.50;4.25;;;;;20.34;57.47;101609.50;5097133;27;46115;-51
2022/05/17 05:51:37;;;;;;;;;8.75;7.25;;;;;20.35;57.72;101607.66;5099258;27;45221;-46
2022/05/17 05:54:03;;;;;;;;;8.50;7.00;;;;;20.38;57.26;101600.00;5101954;27;45229;-48
2022/05/17 05:56:29;;;;;;;;;10.50;10.25;;;;;20.46;57.38;101607.16;5101560;27;45160;-50
2022/05/17 05:58:54;;;;;;;;;10.25;9.00;;;;;20.55;57.16;101611.44;5101502;27;45198;-48
2022/05/17 06:01:20;;;;;;;;;14.00;9.75;;;;;20.61;56.83;101610.69;5101397;27;45340;-47
2022/05/17 06:03:46;;;;;;;;;10.25;10.25;;;;;20.70;56.50;101615.97;5100574;27;45514;-49
2022/05/17 06:06:12;;;;;;;;;17.75;12.00;;;;;20.72;56.69;101609.34;5101219;27;45295;-48
2022/05/17 06:08:38;;;;;;;;;9.50;7.50;;;;;20.76;56.11;101612.50;5100778;27;46075;-51
2022/05/17 06:11:04;;;;;;;;;14.25;9.75;;;;;20.79;56.15;101607.53;5100879;27;45343;-50
2022/05/17 06:13:30;;;;;;;;;11.50;10.25;;;;;20.90;55.92;101606.22;5101089;27;45238;-50
2022/05/17 06:15:56;;;;;;;;;11.25;8.50;;;;;20.95;55.85;101608.31;5101054;27;45351;-48
2022/05/17 06:18:22;;;;;;;;;13.50;10.50;;;;;21.02;55.25;101601.91;5100180;27;46023;-48
2022/05/17 06:20:53;;;;;;;;;13.00;10.25;;;;;21.10;55.58;101609.91;5100403;27;45329;-48
2022/05/17 06:23:20;;;;;;;;;14.25;9.50;;;;;21.10;55.52;101600.94;5100579;27;45375;-49
2022/05/17 06:25:45;;;;;;;;;10.75;10.75;;;;;21.25;55.35;101607.13;5100437;27;45248;-47
2022/05/17 06:28:11;;;;;;;;;10.75;10.50;;;;;21.35;54.63;101612.22;5100374;27;45448;-47
2022/05/17 06:30:37;;;;;;;;;12.25;10.50;;;;;21.43;54.51;101596.66;5100311;27;45395;-48
2022/05/17 06:33:02;;;;;;;;;12.25;10.25;;;;;21.59;54.36;101606.38;5100157;27;45269;-50
2022/05/17 06:35:27;;;;;;;;;12.75;10.25;;;;;21.73;54.27;101606.44;5100495;27;45470;-52
2022/05/17 06:37:53;;;;;;;;;11.00;8.75;;;;;21.88;54.42;101613.41;5098949;27;46090;-46
2022/05/17 06:40:19;;;;;;;;;11.00;10.50;;;;;22.00;53.36;101605.56;5098161;27;45505;-48
2022/05/17 06:42:45;;;;;;;;;7.25;7.00;;;;;22.13;53.19;101596.69;5098676;27;45225;-51
2022/05/17 06:45:11;;;;;;;;;16.25;12.50;;;;;22.33;53.11;101596.72;5099940;27;45416;-47
2022/05/17 06:47:37;;;;;;;;;13.00;10.00;;;;;22.54;52.63;101599.28;5099678;27;46311;-48
2022/05/17 06:50:04;;;;;;;;;12.00;10.50;;;;;22.81;52.13;101593.94;5099708;27;45316;-50
2022/05/17 06:52:30;;;;;;;;;10.75;8.25;;;;;23.61;50.61;101592.06;5100004;27;45451;-51
2022/05/17 06:54:56;;;;;;;;;8.00;8.00;;;;;24.87;47.97;101592.34;5098792;27;45542;-50
2022/05/17 06:57:22;;;;;;;;;12.75;8.00;;;;;26.33;44.97;101573.66;5081145;27;48131;-52
2022/05/17 06:59:47;;;;;;;;;9.20;6.80;;;;;28.12;41.57;101597.94;5099679;27;45357;-52
2022/05/17 07:02:13;;;;;;;;;11.50;8.50;;;;;29.63;37.96;101582.75;5099759;27;45248;-47
2022/05/17 07:04:39;;;;;;;;;14.75;8.75;;;;;30.91;35.45;101588.59;5098489;27;45566;-47
2022/05/17 07:07:07;;;;;;;;;10.60;7.80;;;;;32.04;32.93;101584.63;5099458;27;46166;-52
2022/05/17 07:09:34;;;;;;;;;13.20;8.00;;;;;33.05;31.83;101585.09;5098454;27;45410;-52
2022/05/17 07:14:43;;;;;;;;;11.00;8.00;;;;;35.07;28.13;101578.06;5099861;27;45395;-51
2022/05/17 07:17:19;;;;;;;;;7.00;7.00;;;;;35.58;28.17;101572.81;5080737;27;45899;-52
2022/05/17 07:19:46;;;;;;;;;8.00;8.00;;;;;36.12;26.17;101584.63;5099002;27;45516;-52
2022/05/17 07:22:12;;;;;;;;;8.80;8.60;;;;;36.39;26.79;101581.16;5099385;27;45325;-50
2022/05/17 07:24:38;;;;;;;;;10.60;10.00;;;;;36.80;26.27;101581.38;5098955;27;45467;-52
2022/05/17 07:27:05;;;;;;;;;12.80;11.20;;;;;37.27;24.96;101576.66;5098964;27;45301;-48
2022/05/17 07:29:31;;;;;;;;;13.80;9.40;;;;;38.21;24.52;101575.25;5080823;27;45525;-54
2022/05/17 07:31:57;;;;;;;;;12.40;9.00;;;;;39.15;23.51;101579.91;5099100;27;45214;-47
2022/05/17 07:34:22;;;;;;;;;12.00;9.00;;;;;39.94;22.12;101574.63;5099284;27;45447;-53
2022/05/17 07:36:49;;;;;;;;;9.50;9.25;;;;;40.67;20.17;101586.81;5098377;27;45336;-49
2022/05/17 07:39:14;;;;;;;;;10.60;10.60;;;;;41.28;19.90;101581.88;5098985;27;45404;-52
2022/05/17 07:41:41;;;;;;;;;8.50;8.50;;;;;41.75;19.56;101567.84;5099176;27;45356;-53
2022/05/17 07:44:07;;;;;;;;;9.60;8.20;;;;;42.28;19.33;101582.31;5099004;27;45316;-49
2022/05/17 07:46:33;;;;;;;;;10.60;9.40;;;;;42.71;19.16;101581.94;5097531;27;47331;-52
2022/05/17 07:48:58;;;;;;;;;7.00;7.00;;;;;43.17;18.66;101576.34;5097916;27;45344;-55
2022/05/17 07:51:24;;;;;;;;;7.25;7.00;;;;;43.53;17.69;101578.34;5099034;27;45877;-55
2022/05/17 07:53:49;;;;;;;;;8.75;8.00;;;;;43.89;17.38;101583.09;5099348;27;45357;-55
2022/05/17 07:56:15;;;;;;;;;10.25;8.25;;;;;44.38;17.00;101573.75;5098492;27;45355;-56
2022/05/17 07:58:41;;;;;;;;;7.00;7.00;;;;;44.81;16.26;101582.19;5098323;27;45390;-50
2022/05/17 08:01:06;;;;;;;;;8.20;7.00;;;;;45.28;15.76;101581.41;5098747;27;45379;-55
2022/05/17 08:03:32;;;;;;;;;5.25;4.00;;;;;45.50;14.78;101581.94;5098414;27;45340;-55
2022/05/17 08:05:58;;;;;;;;;5.00;5.00;;;;;45.71;15.09;101579.63;5080164;27;46012;-54
2022/05/17 08:08:23;;;;;;;;;6.00;4.75;;;;;46.08;14.36;101573.66;5098355;27;45458;-55
2022/05/17 08:10:49;;;;;;;;;7.75;6.25;;;;;46.35;14.73;101582.25;5098872;27;45380;-47
2022/05/17 08:13:16;;;;;;;;;3.80;3.80;;;;;46.01;14.32;101588.34;5098778;27;45401;-49
2022/05/17 08:15:42;;;;;;;;;5.40;4.20;;;;;45.98;13.95;101577.06;5098013;27;47257;-47
2022/05/17 08:18:08;;;;;;;;;6.60;3.80;;;;;46.47;13.69;101571.63;5098486;27;45391;-49
2022/05/17 08:20:34;;;;;;;;;4.75;4.75;;;;;47.00;14.11;101580.31;5098314;27;45830;-49
2022/05/17 08:23:00;;;;;;;;;5.00;5.00;;;;;47.20;12.73;101583.03;5098909;27;45364;-57
2022/05/17 08:28:11;;;;;;;;;5.00;3.40;;;;;46.89;13.33;101582.09;5098398;27;45355;-46
2022/05/17 08:30:37;;;;;;;;;4.75;2.25;;;;;46.60;11.98;101577.94;5098031;27;45407;-48
2022/05/17 08:33:15;;;;;;;;;4.80;3.20;;;;;46.61;13.06;101573.97;5098528;27;45429;-56
2022/05/17 08:35:51;;;;;;;;;5.60;3.40;;;;;46.98;13.07;101579.06;5097481;27;46231;-59
2022/05/17 08:38:20;;;;;;;;;3.80;3.80;;;;;47.70;12.17;101579.03;5097297;27;45307;-57
2022/05/17 08:41:14;;;;;;;;;6.00;4.20;;;;;48.34;10.96;101575.44;5097997;27;45429;-49
2022/05/17 08:44:04;;;;;;;;;3.80;2.40;;;;;48.58;11.23;101577.72;5098026;27;45431;-56
2022/05/17 08:46:54;;;;;;;;;5.00;2.60;;;;;48.83;9.18;101569.53;5097339;27;46500;-50
2022/05/17 08:49:23;;;;;;;;;5.80;2.60;;;;;49.07;11.39;101539.88;5096504;27;45582;-56
2022/05/17 08:52:01;;;;;;;;;10.00;4.00;;;;;49.81;10.38;101569.84;5098098;27;45347;-58
2022/05/17 08:54:35;;;;;;;;;5.40;2.20;;;;;50.25;10.00;101576.56;5098372;27;45419;-46
2022/05/17 08:57:06;;;;;;;;;2.20;1.80;;;;;50.84;9.39;101568.59;5097493;27;46200;-57
2022/05/17 08:59:35;;;;;;;;;2.00;2.00;;;;;51.21;9.72;101568.22;5097721;27;45361;-56
2022/05/17 09:02:21;;;;;;;;;5.00;4.20;;;;;51.32;9.46;101565.34;5096692;27;45253;-56
2022/05/17 09:04:52;;;;;;;;;3.00;3.00;;;;;51.56;10.03;101566.53;5097661;27;45327;-58
2022/05/17 09:07:27;;;;;;;;;3.60;2.80;;;;;51.63;8.94;101561.66;5097397;27;46200;-54
2022/05/17 09:09:57;;;;;;;;;2.00;0.60;;;;;51.97;8.02;101558.31;5079096;27;45633;-49
2022/05/17 09:12:52;;;;;;;;;1.20;1.00;;;;;52.18;9.00;101559.41;5097882;27;45183;-58
2022/05/17 09:15:19;;;;;;;;;2.00;2.00;;;;;52.42;7.68;101564.13;5097751;27;45162;-45
2022/05/17 09:17:45;;;;;;;;;1.80;1.80;;;;;52.47;8.00;101560.03;5097126;27;47120;-46
2022/05/17 09:20:18;;;;;;;;;2.20;2.00;;;;;52.65;8.79;101562.81;5112467;27;45529;-56
2022/05/17 09:22:44;;;;;;;;;1.60;1.40;;;;;52.63;7.68;101563.22;5118304;27;45327;-50
2022/05/17 09:25:26;;;;;;;;;1.33;1.33;;;;;52.76;7.90;101555.78;5118209;27;46142;-53
2022/05/17 09:27:53;;;;;;;;;0.20;0.20;;;;;53.15;7.91;101560.34;5116851;27;47221;-53
2022/05/17 09:30:21;;;;;;;;;1.00;1.00;;;;;53.08;7.93;101557.56;5117828;27;45454;-46
2022/05/17 09:32:47;;;;;;;;;1.20;1.20;;;;;53.03;7.68;101553.16;5118124;27;45438;-52
2022/05/17 09:35:21;;;;;;;;;1.75;1.75;;;;;53.19;7.27;101546.91;5118027;27;45337;-45
2022/05/17 09:37:52;;;;;;;;;1.20;1.20;;;;;53.24;7.03;101557.03;5117734;27;45437;-52
2022/05/17 09:40:30;;;;;;;;;1.00;1.00;;;;;53.23;7.02;101546.91;5117901;27;45332;-45
2022/05/17 09:42:59;;;;;;;;;0.60;0.60;;;;;53.27;7.76;101547.66;5118140;27;45754;-53
2022/05/17 09:45:36;;;;;;;;;2.00;1.20;;;;;53.30;8.24;101543.97;5117940;27;45468;-52
2022/05/17 09:48:06;;;;;;;;;1.20;0.60;;;;;53.38;7.24;101539.00;5117786;27;45911;-46
2022/05/17 09:53:39;;;;;;;;;1.00;0.00;;;;;53.26;8.00;101544.00;5117950;27;45183;-52
2022/05/17 09:56:06;;;;;;;;;0.00;0.00;;;;;53.07;7.96;101545.41;5118206;27;45320;-51
2022/05/17 09:58:38;;;;;;;;;0.25;0.25;;;;;53.10;7.13;101538.88;5117502;27;46053;-52
2022/05/17 10:01:17;;;;;;;;;0.20;0.20;;;;;53.48;7.53;101540.91;5117686;27;45477;-46
2022/05/17 10:03:58;;;;;;;;;0.80;0.80;;;;;53.57;7.50;101546.94;5117960;27;45269;-46
2022/05/17 10:06:34;;;;;;;;;0.20;0.20;;;;;53.49;8.10;101531.97;5117850;27;45413;-45
2022/05/17 10:09:25;;;;;;;;;0.20;0.20;;;;;53.77;6.87;101536.50;5117332;27;47720;-49
2022/05/17 10:12:20;;;;;;;;;0.20;0.20;;;;;53.94;7.63;101536.72;5117577;27;45379;-52
2022/05/17 10:14:56;;;;;;;;;0.20;0.20;;;;;53.75;6.38;101529.66;5117680;27;45265;-45
2022/05/17 10:17:32;;;;;;;;;0.20;0.20;;;;;53.76;7.70;101529.22;5117751;27;45395;-45
2022/05/17 10:20:04;;;;;;;;;0.80;0.20;;;;;53.78;8.72;101525.94;5115617;27;48001;-45
2022/05/17 10:23:06;;;;;;;;;0.20;0.00;;;;;53.27;7.49;101519.22;5117645;27;45391;-51
2022/05/17 10:25:46;;;;;;;;;1.20;1.20;;;;;53.10;7.54;101518.97;5117173;27;45271;-44
2022/05/17 10:28:33;;;;;;;;;1.80;1.20;;;;;52.86;8.11;101523.66;5117476;27;45454;-48
2022/05/17 10:31:11;;;;;;;;;2.00;0.40;;;;;52.19;7.68;101510.75;5116950;27;46317;-47
2022/05/17 10:33:50;;;;;;;;;0.40;0.40;;;;;51.90;7.86;101510.09;5117373;27;45460;-47
2022/05/17 10:36:30;;;;;;;;;2.00;0.80;;;;;52.00;8.33;101500.69;5117308;27;45409;-47
2022/05/17 10:39:25;;;;;;;;;0.80;0.80;;;;;52.01;8.93;101496.66;5120498;27;45234;-44
2022/05/17 10:41:50;;;;;;;;;1.60;1.00;;;;;51.98;7.88;101491.81;5120908;27;45458;-45
2022/05/17 10:44:19;;;;;;;;;3.50;1.75;;;;;51.82;7.67;101488.63;5120509;27;45341;-46
2022/05/17 10:46:53;;;;;;;;;1.20;1.20;;;;;51.94;8.56;101478.88;5120876;27;45399;-44
2022/05/17 10:49:54;;;;;;;;;1.20;1.20;;;;;51.81;8.51;101487.81;5120844;27;45383;-44
2022/05/17 10:52:35;;;;;;;;;1.00;1.00;;;;;51.04;8.71;101481.97;5035738;28;45791;-48
2022/05/17 10:55:33;;;;;;;;;4.40;2.80;;;;;50.89;8.46;101474.72;5036962;28;45331;-45
2022/05/17 10:58:03;;;;;;;;;7.60;4.40;;;;;50.03;8.60;101471.78;5017081;28;45346;-45
2022/05/17 11:00:37;;;;;;;;;9.00;6.20;;;;;49.64;8.77;101469.59;5017967;28;45331;-46
2022/05/17 11:03:28;;;;;;;;;3.20;3.00;;;;;48.90;9.36;101467.09;5017103;28;46006;-48
2022/05/17 11:06:05;;;;;;;;;3.00;2.40;;;;;47.79;10.33;101468.78;5016765;28;45463;-48
2022/05/17 11:08:41;;;;;;;;;3.80;1.80;;;;;45.80;10.93;101469.81;5016890;28;45446;-48
2022/05/17 11:11:30;;;;;;;;;1.80;1.60;;;;;44.15;12.65;101472.50;5018148;28;45511;-48
2022/05/17 11:14:24;;;;;;;;;4.60;2.20;;;;;43.06;13.77;101456.41;5018376;28;46427;-46
2022/05/17 11:16:49;;;;;;;;;1.40;1.20;;;;;41.63;14.31;101468.03;5005051;28;45256;-45
2022/05/17 11:19:31;;;;;;;;;3.75;3.75;;;;;40.35;15.27;101460.69;5018159;28;45545;-45
2022/05/17 11:22:13;;;;;;;;;3.40;3.40;;;;;38.79;16.31;101457.66;5018017;28;45268;-43
2022/05/17 11:25:09;;;;;;;;;1.00;0.00;;;;;37.70;17.72;101462.53;5017102;28;45456;-44
2022/05/17 11:28:09;;;;;;;;;4.00;2.40;;;;;36.82;19.14;101448.78;5024430;28;45390;-43
2022/05/17 11:31:00;;;;;;;;;1.00;1.00;;;;;36.16;18.90;101444.41;4996587;28;45374;-48
2022/05/17 11:33:33;;;;;;;;;5.00;3.00;;;;;35.73;19.85;101447.22;5000808;28;45368;-47
2022/05/17 11:36:06;;;;;;;;;3.40;1.20;;;;;35.17;19.89;101451.53;5036213;28;47199;-44
2022/05/17 11:38:32;;;;;;;;;4.80;3.00;;;;;34.81;20.76;101445.59;5036191;28;45345;-46
2022/05/17 11:41:01;;;;;;;;;1.50;1.50;;;;;34.53;21.02;101438.97;5036066;28;45524;-46
2022/05/17 11:43:51;;;;;;;;;3.00;3.00;;;;;34.20;20.93;101440.59;5036253;28;45380;-43
2022/05/17 11:46:28;;;;;;;;;1.20;1.20;;;;;33.99;22.07;101434.41;5036072;28;46384;-44
2022/05/17 11:48:58;;;;;;;;;4.60;2.80;;;;;33.64;21.99;101438.19;5040555;28;45477;-45